createdAt,value
2022-08-17T00:01:19.025Z,45.40
2022-08-17T00:04:10.774Z,45.58
2022-08-17T00:06:55.080Z,45.27
2022-08-17T00:09:38.412Z,45.70
2022-08-17T00:12:43.259Z,45.47
2022-08-17T00:15:27.649Z,45.75
2022-08-17T00:18:53.822Z,45.80
2022-08-17T00:21:15.315Z,45.62
2022-08-17T00:24:04.097Z,45.82
2022-08-17T00:26:47.436Z,46.00
2022-08-17T00:29:30.591Z,45.61
2022-08-17T00:33:13.886Z,45.48
2022-08-17T00:35:23.252Z,45.54
2022-08-17T00:38:09.770Z,45.97
2022-08-17T00:40:55.781Z,45.41
2022-08-17T00:43:44.776Z,45.88
2022-08-17T00:46:31.726Z,45.61
2022-08-17T00:49:19.585Z,45.74
2022-08-17T00:52:10.871Z,45.44
2022-08-17T00:54:56.673Z,45.38
2022-08-17T00:57:43.770Z,45.17
2022-08-17T01:00:35.337Z,45.07
2022-08-17T01:03:22.623Z,45.01
2022-08-17T01:06:09.177Z,44.96
2022-08-17T01:08:57.458Z,44.79
2022-08-17T01:11:41.028Z,44.83
2022-08-17T01:14:26.019Z,45.13
2022-08-17T01:17:10.243Z,44.73
2022-08-17T01:19:53.256Z,45.26
2022-08-17T01:22:37.701Z,45.00
2022-08-17T01:25:22.420Z,45.22
2022-08-17T01:28:05.590Z,44.67
2022-08-17T01:30:56.850Z,44.52
2022-08-17T01:33:42.275Z,44.87
2022-08-17T01:36:25.449Z,44.91
2022-08-17T01:39:17.318Z,44.39
2022-08-17T01:42:06.859Z,44.59
2022-08-17T01:44:53.363Z,44.26
2022-08-17T01:47:37.426Z,44.52
2022-08-17T01:50:23.777Z,44.92
2022-08-17T01:53:11.409Z,44.94
2022-08-17T01:56:00.576Z,44.95
2022-08-17T01:58:45.004Z,44.63
2022-08-17T02:01:34.778Z,44.79
2022-08-17T02:04:18.077Z,44.39
2022-08-17T02:07:01.228Z,44.39
2022-08-17T02:09:44.894Z,44.57
2022-08-17T02:12:39.890Z,44.39
2022-08-17T02:15:23.558Z,44.73
2022-08-17T02:18:07.509Z,44.69
2022-08-17T02:20:50.711Z,44.94
2022-08-17T02:23:38.508Z,44.83
2022-08-17T02:26:26.088Z,44.72
2022-08-17T02:29:12.077Z,45.02
2022-08-17T02:31:55.090Z,44.71
2022-08-17T02:34:38.120Z,44.90
2022-08-17T02:37:21.235Z,45.22
2022-08-17T02:40:06.255Z,44.74
2022-08-17T02:42:49.974Z,45.32
2022-08-17T02:45:34.788Z,45.37
2022-08-17T02:48:29.707Z,45.56
2022-08-17T02:51:14.362Z,45.82
2022-08-17T02:54:35.778Z,45.60
2022-08-17T02:57:00.920Z,45.38
2022-08-17T02:59:48.843Z,45.50
2022-08-17T03:02:39.492Z,45.55
2022-08-17T03:05:25.255Z,45.44
2022-08-17T03:08:11.753Z,45.33
2022-08-17T03:10:56.893Z,45.33
2022-08-17T03:13:39.902Z,45.22
2022-08-17T03:16:22.942Z,45.02
2022-08-17T03:19:07.321Z,44.77
2022-08-17T03:21:54.923Z,44.96
2022-08-17T03:24:38.509Z,45.08
2022-08-17T03:27:23.132Z,44.92
2022-08-17T03:30:08.463Z,44.91
2022-08-17T03:32:54.822Z,44.74
2022-08-17T03:35:41.372Z,44.53
2022-08-17T03:38:24.789Z,44.53
2022-08-17T03:41:08.668Z,44.22
2022-08-17T03:43:51.719Z,44.04
2022-08-17T03:46:54.479Z,43.71
2022-08-17T03:49:54.807Z,43.99
2022-08-17T03:52:56.643Z,44.08
2022-08-17T03:55:58.466Z,43.86
2022-08-17T03:58:41.455Z,44.07
2022-08-17T04:01:24.563Z,43.91
2022-08-17T04:04:07.766Z,43.90
2022-08-17T04:06:50.809Z,44.40
2022-08-17T04:09:36.614Z,43.80
2022-08-17T04:12:22.114Z,44.12
2022-08-17T04:15:06.716Z,44.03
2022-08-17T04:17:49.846Z,44.18
2022-08-17T04:20:33.186Z,44.59
2022-08-17T04:23:18.304Z,44.67
2022-08-17T04:26:02.871Z,44.60
2022-08-17T04:28:45.939Z,44.50
2022-08-17T04:31:29.459Z,44.70
2022-08-17T04:34:12.885Z,44.56
2022-08-17T04:36:56.277Z,44.38
2022-08-17T04:39:39.298Z,44.75
2022-08-17T04:42:22.795Z,44.47
2022-08-17T04:45:06.654Z,44.55
2022-08-17T04:47:49.665Z,44.52
2022-08-17T04:50:34.745Z,44.66
2022-08-17T04:53:19.408Z,44.63
2022-08-17T04:56:02.606Z,44.36
2022-08-17T04:58:49.792Z,44.59
2022-08-17T05:01:35.467Z,44.23
2022-08-17T05:04:34.489Z,44.00
2022-08-17T05:07:23.098Z,44.08
2022-08-17T05:10:08.114Z,43.85
2022-08-17T05:12:59.210Z,44.21
2022-08-17T05:15:47.717Z,44.04
2022-08-17T05:18:32.461Z,43.85
2022-08-17T05:21:16.424Z,44.05
2022-08-17T05:23:59.606Z,43.51
2022-08-17T05:26:42.590Z,43.56
2022-08-17T05:29:35.240Z,44.05
2022-08-17T05:32:39.111Z,43.95
2022-08-17T05:35:23.726Z,43.74
2022-08-17T05:38:08.077Z,44.17
2022-08-17T05:40:51.894Z,44.15
2022-08-17T05:43:36.959Z,44.05
2022-08-17T05:46:23.358Z,43.69
2022-08-17T05:49:09.174Z,44.27
2022-08-17T05:52:19.743Z,44.25
2022-08-17T05:55:15.388Z,44.30
2022-08-17T05:58:05.148Z,44.06
2022-08-17T06:00:55.957Z,44.50
2022-08-17T06:03:49.438Z,44.25
2022-08-17T06:06:41.682Z,44.21
2022-08-17T06:09:35.893Z,43.90
2022-08-17T06:12:35.916Z,44.18
2022-08-17T06:15:28.815Z,44.42
2022-08-17T06:18:17.278Z,43.89
2022-08-17T06:21:06.731Z,44.00
2022-08-17T06:23:56.993Z,44.24
2022-08-17T06:26:43.395Z,44.47
2022-08-17T06:29:38.582Z,43.67
2022-08-17T06:32:21.899Z,44.31
2022-08-17T06:35:07.482Z,44.20
2022-08-17T06:38:37.916Z,44.24
2022-08-17T06:41:28.859Z,44.29
2022-08-17T06:44:43.433Z,43.86
2022-08-17T06:47:32.486Z,43.82
2022-08-17T06:50:21.057Z,43.82
2022-08-17T06:53:13.999Z,43.98
2022-08-17T06:56:01.871Z,43.96
2022-08-17T06:58:46.742Z,43.67
2022-08-17T07:01:34.749Z,43.74
2022-08-17T07:04:22.518Z,43.48
2022-08-17T07:07:23.717Z,42.97
2022-08-17T07:10:09.820Z,42.99
2022-08-17T07:12:56.455Z,42.89
2022-08-17T07:15:43.611Z,42.90
2022-08-17T07:18:29.325Z,42.56
2022-08-17T07:21:30.683Z,41.88
2022-08-17T07:24:30.683Z,42.40
2022-08-17T07:27:16.753Z,41.09
2022-08-17T07:30:11.195Z,40.81
2022-08-17T07:32:58.418Z,40.73
2022-08-17T07:35:44.269Z,40.30
2022-08-17T07:38:29.459Z,40.37
2022-08-17T07:41:12.882Z,39.74
2022-08-17T07:43:57.551Z,39.79
2022-08-17T07:47:07.004Z,38.13
2022-08-17T07:49:51.385Z,38.85
2022-08-17T07:52:50.594Z,38.66
2022-08-17T07:55:40.509Z,38.66
2022-08-17T07:58:26.532Z,37.96
2022-08-17T08:01:13.521Z,38.04
2022-08-17T08:03:58.091Z,37.96
2022-08-17T08:06:52.661Z,37.29
2022-08-17T08:09:39.686Z,36.79
2022-08-17T08:12:30.555Z,36.80
2022-08-17T08:15:20.615Z,36.83
2022-08-17T08:18:06.530Z,36.42
2022-08-17T08:20:54.843Z,35.70
2022-08-17T08:23:46.358Z,35.88
2022-08-17T08:26:35.280Z,36.07
2022-08-17T08:29:28.585Z,36.12
2022-08-17T08:32:21.255Z,35.76
2022-08-17T08:35:08.395Z,35.85
2022-08-17T08:37:59.316Z,36.14
2022-08-17T08:41:06.976Z,36.23
2022-08-17T08:44:00.840Z,36.35
2022-08-17T08:46:53.229Z,36.65
2022-08-17T08:50:03.838Z,35.79
2022-08-17T08:53:04.737Z,36.52
2022-08-17T08:55:56.471Z,36.46
2022-08-17T08:58:51.599Z,36.55
2022-08-17T09:01:51.812Z,36.42
2022-08-17T09:05:13.293Z,36.04
2022-08-17T09:08:04.562Z,36.25
2022-08-17T09:10:59.605Z,35.59
2022-08-17T09:13:46.617Z,34.60
2022-08-17T09:16:42.207Z,34.79
2022-08-17T09:19:32.221Z,35.12
2022-08-17T09:22:25.951Z,35.08
2022-08-17T09:25:12.068Z,35.30
2022-08-17T09:28:00.658Z,34.93
2022-08-17T09:30:46.943Z,34.81
2022-08-17T09:33:32.715Z,33.99
2022-08-17T09:36:21.733Z,33.97
2022-08-17T09:39:09.978Z,33.77
2022-08-17T09:41:59.671Z,33.50
2022-08-17T09:44:50.095Z,32.79
2022-08-17T09:47:45.430Z,32.21
2022-08-17T09:50:55.568Z,32.02
2022-08-17T09:53:39.642Z,31.86
2022-08-17T09:56:46.029Z,30.93
2022-08-17T09:59:47.329Z,29.72
2022-08-17T10:02:51.279Z,28.62
2022-08-17T10:05:46.435Z,28.69
2022-08-17T10:08:38.771Z,28.36
2022-08-17T10:11:50.595Z,27.66
2022-08-17T10:14:44.152Z,26.76
2022-08-17T10:17:36.772Z,25.90
2022-08-17T10:20:26.973Z,25.63
2022-08-17T10:23:40.293Z,25.64
2022-08-17T10:26:28.183Z,25.33
2022-08-17T10:29:48.417Z,24.90
2022-08-17T10:32:36.220Z,24.46
2022-08-17T10:35:33.934Z,23.44
2022-08-17T10:38:36.462Z,22.92
2022-08-17T10:41:30.131Z,22.27
2022-08-17T10:44:38.353Z,22.47
2022-08-17T10:47:27.020Z,22.14
2022-08-17T10:50:46.227Z,21.03
2022-08-17T10:54:01.479Z,21.49
2022-08-17T10:57:05.175Z,21.60
2022-08-17T10:59:51.819Z,21.90
2022-08-17T11:02:45.801Z,21.55
2022-08-17T11:05:52.300Z,20.23
2022-08-17T11:09:03.860Z,20.93
2022-08-17T11:12:07.323Z,19.58
2022-08-17T11:15:04.502Z,20.33
2022-08-17T11:18:22.193Z,20.24
2022-08-17T11:21:30.219Z,18.83
2022-08-17T11:24:20.342Z,19.88
2022-08-17T11:27:12.351Z,20.06
2022-08-17T11:30:01.927Z,20.23
2022-08-17T11:32:54.804Z,19.88
2022-08-17T11:35:49.504Z,19.85
2022-08-17T11:38:46.967Z,19.26
2022-08-17T11:41:40.410Z,19.46
2022-08-17T11:44:37.761Z,19.55
2022-08-17T11:48:08.952Z,19.67
2022-08-17T11:51:16.955Z,19.51
2022-08-17T11:54:31.673Z,19.00
2022-08-17T11:57:52.411Z,18.30
2022-08-17T12:00:52.521Z,18.82
2022-08-17T12:03:54.451Z,18.19
2022-08-17T12:06:51.129Z,18.72
2022-08-17T12:09:42.333Z,18.03
2022-08-17T12:12:31.334Z,18.90
2022-08-17T12:15:19.194Z,18.71
2022-08-17T12:18:02.312Z,18.91
2022-08-17T12:20:56.056Z,18.29
2022-08-17T12:23:44.157Z,18.31
2022-08-17T12:26:32.113Z,18.73
2022-08-17T12:29:35.804Z,18.15
2022-08-17T12:32:22.934Z,18.22
2022-08-17T12:35:07.217Z,18.26
2022-08-17T12:37:51.322Z,18.60
2022-08-17T12:40:34.699Z,18.58
2022-08-17T12:43:23.414Z,18.68
2022-08-17T12:46:14.996Z,18.23
2022-08-17T12:49:12.931Z,18.01
2022-08-17T12:52:04.448Z,18.13
2022-08-17T12:54:54.938Z,18.42
2022-08-17T12:57:43.803Z,17.97
2022-08-17T13:00:31.213Z,18.33
2022-08-17T13:03:17.080Z,18.74
2022-08-17T13:06:01.946Z,19.28
2022-08-17T13:08:47.703Z,19.84
2022-08-17T13:11:30.695Z,19.34
2022-08-17T13:14:13.770Z,19.47
2022-08-17T13:17:00.294Z,19.10
2022-08-17T13:19:50.511Z,19.20
2022-08-17T13:22:33.826Z,19.10
2022-08-17T13:25:17.865Z,19.30
2022-08-17T13:28:00.889Z,19.36
2022-08-17T13:30:43.919Z,19.59
2022-08-17T13:33:43.303Z,19.52
2022-08-17T13:36:30.042Z,19.85
2022-08-17T13:39:19.831Z,19.59
2022-08-17T13:42:02.839Z,19.98
2022-08-17T13:44:45.855Z,19.99
2022-08-17T13:47:29.170Z,20.13
2022-08-17T13:50:22.509Z,20.09
2022-08-17T13:53:16.955Z,20.30
2022-08-17T13:56:00.977Z,19.89
2022-08-17T13:58:56.849Z,19.74
2022-08-17T14:01:42.443Z,19.99
2022-08-17T14:04:29.318Z,19.95
2022-08-17T14:07:30.354Z,19.65
2022-08-17T14:10:16.109Z,20.18
2022-08-17T14:12:59.626Z,20.40
2022-08-17T14:15:56.389Z,20.50
2022-08-17T14:18:55.946Z,20.75
2022-08-17T14:21:42.756Z,20.68
2022-08-17T14:24:29.570Z,20.77
2022-08-17T14:27:12.935Z,21.11
2022-08-17T14:29:56.584Z,21.05
2022-08-17T14:32:41.340Z,21.18
2022-08-17T14:35:25.127Z,21.14
2022-08-17T14:38:08.162Z,21.29
2022-08-17T14:40:52.881Z,21.42
2022-08-17T14:43:36.106Z,21.34
2022-08-17T14:46:19.158Z,21.49
2022-08-17T14:49:02.861Z,21.77
2022-08-17T14:51:46.693Z,21.69
2022-08-17T14:54:34.154Z,21.92
2022-08-17T14:57:33.393Z,22.35
2022-08-17T15:00:17.706Z,22.06
2022-08-17T15:03:02.356Z,22.37
2022-08-17T15:05:46.814Z,22.28
2022-08-17T15:08:30.065Z,22.53
2022-08-17T15:11:14.235Z,22.68
2022-08-17T15:13:58.643Z,22.34
2022-08-17T15:16:41.677Z,22.40
2022-08-17T15:19:24.700Z,22.66
2022-08-17T15:22:07.876Z,22.44
2022-08-17T15:24:50.928Z,22.32
2022-08-17T15:27:34.593Z,22.35
2022-08-17T15:30:19.261Z,22.66
2022-08-17T15:33:03.583Z,22.31
2022-08-17T15:35:50.573Z,22.69
2022-08-17T15:38:36.699Z,22.79
2022-08-17T15:41:20.588Z,23.03
2022-08-17T15:44:03.753Z,23.10
2022-08-17T15:46:49.715Z,22.66
2022-08-17T15:49:33.451Z,22.87
2022-08-17T15:52:19.260Z,22.65
2022-08-17T15:55:02.337Z,22.58
2022-08-17T15:57:45.339Z,22.77
2022-08-17T16:00:29.538Z,23.37
2022-08-17T16:04:01.255Z,23.33
2022-08-17T16:06:18.641Z,23.91
2022-08-17T16:09:01.731Z,23.73
2022-08-17T16:11:46.069Z,23.70
2022-08-17T16:14:37.316Z,24.26
2022-08-17T16:17:40.177Z,24.24
2022-08-17T16:20:25.150Z,23.81
2022-08-17T16:23:08.239Z,24.74
2022-08-17T16:25:53.733Z,24.21
2022-08-17T16:28:37.102Z,24.02
2022-08-17T16:31:20.256Z,24.32
2022-08-17T16:34:17.208Z,24.52
2022-08-17T16:37:02.928Z,24.68
2022-08-17T16:39:46.363Z,24.92
2022-08-17T16:42:32.731Z,24.45
2022-08-17T16:45:18.781Z,25.04
2022-08-17T16:48:01.740Z,24.94
2022-08-17T16:51:00.353Z,25.35
2022-08-17T16:53:48.545Z,25.49
2022-08-17T16:56:42.589Z,25.51
2022-08-17T16:59:30.429Z,25.70
2022-08-17T17:02:17.212Z,25.68
2022-08-17T17:05:06.896Z,25.47
2022-08-17T17:07:58.831Z,25.93
2022-08-17T17:10:45.748Z,26.24
2022-08-17T17:13:33.275Z,26.63
2022-08-17T17:16:21.650Z,26.32
2022-08-17T17:19:11.024Z,27.31
2022-08-17T17:22:04.139Z,27.23
2022-08-17T17:24:56.964Z,27.34
2022-08-17T17:27:49.432Z,27.62
2022-08-17T17:30:40.509Z,28.10
2022-08-17T17:33:34.103Z,28.49
2022-08-17T17:36:25.931Z,28.76
2022-08-17T17:39:14.350Z,28.73
2022-08-17T17:41:59.954Z,29.25
2022-08-17T17:44:47.855Z,29.14
2022-08-17T17:47:33.538Z,29.65
2022-08-17T17:50:18.839Z,29.52
2022-08-17T17:53:07.599Z,29.74
2022-08-17T17:56:02.774Z,29.69
2022-08-17T17:58:56.506Z,30.07
2022-08-17T18:01:50.709Z,29.81
2022-08-17T18:04:41.408Z,29.87
2022-08-17T18:07:35.062Z,30.02
2022-08-17T18:10:29.549Z,30.50
2022-08-17T18:13:27.953Z,30.79
2022-08-17T18:16:13.807Z,31.16
2022-08-17T18:18:58.619Z,31.43
2022-08-17T18:21:46.482Z,31.98
2022-08-17T18:24:31.434Z,32.39
2022-08-17T18:27:24.950Z,32.66
2022-08-17T18:30:28.891Z,33.65
2022-08-17T18:33:23.244Z,33.96
2022-08-17T18:36:08.892Z,33.97
2022-08-17T18:38:58.591Z,34.21
2022-08-17T18:41:42.468Z,34.80
2022-08-17T18:44:29.320Z,35.09
2022-08-17T18:47:16.282Z,35.25
2022-08-17T18:50:20.621Z,35.76
2022-08-17T18:53:26.634Z,36.46
2022-08-17T18:56:26.289Z,36.90
2022-08-17T18:59:18.604Z,37.05
2022-08-17T19:02:38.701Z,37.31
2022-08-17T19:05:35.334Z,37.54
2022-08-17T19:08:33.173Z,37.36
2022-08-17T19:11:24.852Z,37.58
2022-08-17T19:14:11.393Z,37.73
2022-08-17T19:17:00.076Z,38.21
2022-08-17T19:19:51.821Z,37.79
2022-08-17T19:22:50.790Z,38.26
2022-08-17T19:25:41.120Z,37.92
2022-08-17T19:28:28.524Z,37.84
2022-08-17T19:31:17.814Z,38.06
2022-08-17T19:34:02.805Z,38.22
2022-08-17T19:36:54.386Z,38.30
2022-08-17T19:39:48.193Z,38.08
2022-08-17T19:42:42.523Z,37.99
2022-08-17T19:45:42.170Z,38.18
2022-08-17T19:48:40.683Z,38.10
2022-08-17T19:51:31.031Z,37.89
2022-08-17T19:54:20.448Z,38.18
2022-08-17T19:57:10.463Z,38.03
2022-08-17T19:59:59.595Z,37.75
2022-08-17T20:02:49.093Z,37.86
2022-08-17T20:06:08.472Z,37.37
2022-08-17T20:08:42.245Z,37.55
2022-08-17T20:11:32.476Z,37.29
2022-08-17T20:14:19.216Z,37.37
2022-08-17T20:17:05.441Z,37.02
2022-08-17T20:19:55.442Z,36.77
2022-08-17T20:22:52.499Z,37.07
2022-08-17T20:25:43.726Z,36.79
2022-08-17T20:28:30.601Z,36.91
2022-08-17T20:31:42.073Z,36.75
2022-08-17T20:34:34.961Z,36.87
2022-08-17T20:37:29.775Z,37.00
2022-08-17T20:40:21.278Z,36.87
2022-08-17T20:43:42.936Z,36.77
2022-08-17T20:46:53.504Z,36.81
2022-08-17T20:49:50.192Z,36.95
2022-08-17T20:52:47.567Z,37.02
2022-08-17T20:55:58.113Z,37.06
2022-08-17T20:58:48.577Z,37.03
2022-08-17T21:01:39.985Z,37.16
2022-08-17T21:04:47.473Z,37.01
2022-08-17T21:07:45.883Z,37.19
2022-08-17T21:10:37.157Z,37.22
2022-08-17T21:13:53.175Z,37.64
2022-08-17T21:16:45.706Z,37.38
2022-08-17T21:20:07.708Z,37.37
2022-08-17T21:23:02.363Z,37.68
2022-08-17T21:26:04.209Z,37.78
2022-08-17T21:29:19.486Z,37.59
2022-08-17T21:32:24.442Z,37.87
2022-08-17T21:35:47.302Z,37.42
2022-08-17T21:38:37.990Z,37.86
2022-08-17T21:41:23.665Z,37.63
2022-08-17T21:44:14.399Z,37.65
2022-08-17T21:47:14.453Z,37.98
2022-08-17T21:50:16.093Z,37.91
2022-08-17T21:53:02.290Z,37.89
2022-08-17T21:55:50.275Z,38.06
2022-08-17T21:58:35.430Z,38.27
2022-08-17T22:01:27.101Z,38.20
2022-08-17T22:04:20.165Z,38.35
2022-08-17T22:07:06.378Z,38.25
2022-08-17T22:09:51.081Z,38.31
2022-08-17T22:12:35.361Z,38.92
2022-08-17T22:15:20.552Z,38.45
2022-08-17T22:18:05.177Z,38.81
2022-08-17T22:20:51.569Z,38.51
2022-08-17T22:23:55.366Z,38.69
2022-08-17T22:27:02.747Z,38.55
2022-08-17T22:29:57.346Z,38.27
2022-08-17T22:32:44.639Z,38.54
2022-08-17T22:35:39.957Z,38.36
2022-08-17T22:38:41.065Z,38.44
2022-08-17T22:41:51.294Z,38.13
2022-08-17T22:44:37.813Z,38.26
2022-08-17T22:47:32.091Z,38.36
2022-08-17T22:50:22.788Z,38.27
2022-08-17T22:53:34.248Z,38.10
2022-08-17T22:56:37.297Z,37.76
2022-08-17T22:59:46.208Z,37.64
2022-08-17T23:02:33.289Z,37.44
2022-08-17T23:05:21.811Z,37.83
2022-08-17T23:08:05.767Z,37.42
2022-08-17T23:10:49.491Z,37.24
2022-08-17T23:13:33.468Z,37.40
2022-08-17T23:16:16.567Z,37.29
2022-08-17T23:19:00.942Z,37.09
2022-08-17T23:21:45.781Z,37.35
2022-08-17T23:24:31.445Z,37.33
2022-08-17T23:27:14.458Z,37.42
2022-08-17T23:29:57.484Z,37.48
2022-08-17T23:32:53.377Z,37.10
2022-08-17T23:35:38.884Z,37.16
2022-08-17T23:38:27.119Z,37.41
2022-08-17T23:41:12.931Z,37.34
2022-08-17T23:43:56.288Z,37.30
2022-08-17T23:46:39.864Z,37.52
2022-08-17T23:49:24.444Z,37.37
2022-08-17T23:52:12.551Z,37.09
2022-08-17T23:54:58.769Z,36.88
2022-08-17T23:57:41.945Z,37.11
